Погода Китхар-Рэнджна неделю

Белуджистан, Пакистан

25 - 31 июля
  • 25июля
    Сегодня
    +29°
    +40°
    Ясно и безоблачно
    ВремяПогодаТемператураВлажностьДавлениеВетер, м/сВероятность осадков
    02:00Ясно и безоблачно+31°C66 %740 мм4.3 м/с2 %
    05:00Ясно и безоблачно+30°C69 %740 мм3.2 м/с2 %
    08:00Ясно и безоблачно+32°C63 %741 мм3.1 м/с2 %
    11:00Ясно и безоблачно+35°C47 %741 мм1.5 м/с2 %
    14:00Ясно и безоблачно+39°C37 %740 мм2.7 м/с2 %
    17:00Ясно и безоблачно+39°C35 %739 мм3.2 м/с2 %
    20:00Ясно и безоблачно+36°C42 %739 мм1.6 м/с2 %
    23:00Практически безоблачно+33°C56 %741 мм5.4 м/с2 %
  • 26июля
    Пятница
    +30°
    +41°
    Ясно и безоблачно
    ВремяПогодаТемператураВлажностьДавлениеВетер, м/сВероятность осадков
    02:00Ясно и безоблачно+31°C65 %740 мм4.3 м/с2 %
    05:00Ясно и безоблачно+30°C69 %741 мм3.4 м/с2 %
    08:00Ясно и безоблачно+31°C62 %742 мм3.3 м/с2 %
    11:00Ясно и безоблачно+36°C45 %742 мм2.6 м/с2 %
    14:00Ясно и безоблачно+40°C34 %741 мм2.3 м/с2 %
    17:00Ясно и безоблачно+41°C32 %740 мм2.4 м/с2 %
    20:00Ясно и безоблачно+38°C39 %741 мм2.9 м/с2 %
    23:00Практически безоблачно+35°C50 %742 мм3.9 м/с2 %
  • 27июля
    Суббота
    +29°
    +41°
    Ясно и безоблачно
    ВремяПогодаТемператураВлажностьДавлениеВетер, м/сВероятность осадков
    02:00Практически безоблачно+32°C61 %741 мм3.9 м/с2 %
    05:00Ясно и безоблачно+31°C64 %742 мм3.6 м/с2 %
    08:00Ясно и безоблачно+32°C60 %743 мм2.8 м/с2 %
    11:00Практически безоблачно+36°C42 %743 мм1.9 м/с2 %
    14:00Ясно и безоблачно+40°C31 %742 мм1.8 м/с2 %
    17:00Ясно и безоблачно+41°C28 %740 мм1.2 м/с2 %
    20:00Облачно с прояснениями+37°C34 %741 мм2.6 м/с2 %
    23:00Небольшая облачность+35°C45 %742 мм4.1 м/с2 %
  • 28июля
    Воскресенье
    +30°
    +40°
    Небольшая облачность
    ВремяПогодаТемператураВлажностьДавлениеВетер, м/сВероятность осадков
    02:00Небольшая облачность+32°C56 %742 мм4.1 м/с2 %
    05:00Небольшая облачность+30°C67 %743 мм3.1 м/с2 %
    08:00Облачно с прояснениями+31°C65 %744 мм1.8 м/с2 %
    11:00Ясно и безоблачно+36°C45 %745 мм2.8 м/с2 %
    14:00Небольшая облачность+39°C32 %743 мм3.2 м/с2 %
    17:00Облачно с прояснениями+39°C28 %741 мм3.3 м/с4 %
    20:00Облачно с прояснениями+36°C34 %742 мм4.0 м/с4 %
    23:00Облачно с прояснениями+33°C47 %743 мм4.2 м/с4 %
  • 29июля
    Понедельник
    +30°
    +39°
    Облачно с прояснениями
    ВремяПогодаТемператураВлажностьДавлениеВетер, м/сВероятность осадков
    02:00Облачно с прояснениями+32°C57 %743 мм4.1 м/с5 %
    05:00Практически безоблачно+31°C62 %743 мм3.3 м/с7 %
    08:00Облачно с прояснениями+31°C58 %744 мм2.9 м/с14 %
    11:00Облачно с прояснениями+36°C39 %744 мм3.9 м/с24 %
    14:00Облачно с прояснениями+38°C30 %743 мм4.9 м/с36 %
    17:00Облачно с прояснениями+38°C32 %741 мм4.6 м/с32 %
    20:00Облачно с прояснениями+34°C39 %743 мм6.0 м/с25 %
    23:00Облачно с прояснениями+33°C49 %744 мм4.4 м/с27 %
Мы используем cookies
Соглашаюсь